createdAt,value
2023-12-16T07:53:38.055Z,21.09
2023-12-16T07:56:06.046Z,21.12
2023-12-16T07:58:35.345Z,21.10
2023-12-16T08:01:04.238Z,21.18
2023-12-16T08:03:32.142Z,21.19
2023-12-16T08:05:59.901Z,21.19
2023-12-16T08:08:27.952Z,21.17
2023-12-16T08:10:55.616Z,21.19
2023-12-16T08:13:23.304Z,21.17
2023-12-16T08:15:50.719Z,21.18
2023-12-16T08:18:21.497Z,21.17
2023-12-16T08:20:49.876Z,21.20
2023-12-16T08:23:18.872Z,21.27
2023-12-16T08:25:46.828Z,21.32
2023-12-16T08:28:14.829Z,21.41
2023-12-16T08:30:42.219Z,21.44
2023-12-16T08:33:10.368Z,21.44
2023-12-16T08:35:38.195Z,21.40
2023-12-16T08:38:05.698Z,21.42
2023-12-16T08:40:33.214Z,21.41
2023-12-16T08:43:00.646Z,21.45
2023-12-16T08:45:27.900Z,21.44
2023-12-16T08:47:55.322Z,21.46
2023-12-16T08:50:24.466Z,21.52
2023-12-16T08:52:51.897Z,21.53
2023-12-16T08:55:19.611Z,21.20
2023-12-16T08:57:47.000Z,21.15
2023-12-16T09:00:14.925Z,21.23
2023-12-16T09:02:42.673Z,21.46
2023-12-16T09:05:11.049Z,21.57
2023-12-16T09:07:39.181Z,21.70
2023-12-16T09:10:07.406Z,21.78
2023-12-16T09:12:34.913Z,21.80
2023-12-16T09:15:02.370Z,21.88
2023-12-16T09:17:29.971Z,21.92
2023-12-16T09:19:57.438Z,21.91
2023-12-16T09:22:26.062Z,21.86
2023-12-16T09:24:53.558Z,21.94
2023-12-16T09:27:21.815Z,22.00
2023-12-16T09:29:49.508Z,21.98
2023-12-16T09:32:16.858Z,22.01
2023-12-16T09:34:44.372Z,21.93
2023-12-16T09:37:11.719Z,21.97
2023-12-16T09:39:39.901Z,22.01
2023-12-16T09:42:07.499Z,21.98
2023-12-16T09:44:39.934Z,21.89
2023-12-16T09:47:09.897Z,21.91
2023-12-16T09:49:39.360Z,21.94
2023-12-16T09:52:06.937Z,21.98
2023-12-16T09:54:34.909Z,21.99
2023-12-16T09:57:02.307Z,21.99
2023-12-16T09:59:29.926Z,22.02
2023-12-16T10:02:04.366Z,22.06
2023-12-16T10:04:34.659Z,22.07
2023-12-16T10:07:01.943Z,22.08
2023-12-16T10:09:29.442Z,22.04
2023-12-16T10:11:58.471Z,22.04
2023-12-16T10:14:25.722Z,22.09
2023-12-16T10:17:03.408Z,22.17
2023-12-16T10:19:30.790Z,22.22
2023-12-16T10:21:58.016Z,22.29
2023-12-16T10:24:25.357Z,22.26
2023-12-16T10:26:53.807Z,22.15
2023-12-16T10:29:21.641Z,22.08
2023-12-16T10:31:49.401Z,22.10
2023-12-16T10:34:18.170Z,22.14
2023-12-16T10:36:45.822Z,22.14
2023-12-16T10:39:15.064Z,22.15
2023-12-16T10:41:42.317Z,22.12
2023-12-16T10:44:09.557Z,22.10
2023-12-16T10:46:37.385Z,22.08
2023-12-16T10:49:06.474Z,22.00
2023-12-16T10:51:34.170Z,22.02
2023-12-16T10:54:07.115Z,22.00
2023-12-16T10:56:41.207Z,22.03
2023-12-16T10:59:14.283Z,22.14
2023-12-16T11:01:56.403Z,22.25
2023-12-16T11:04:25.475Z,22.38
2023-12-16T11:07:10.895Z,22.46
2023-12-16T11:09:38.800Z,22.52
2023-12-16T11:12:06.959Z,22.52
2023-12-16T11:14:34.967Z,22.52
2023-12-16T11:17:33.126Z,22.58
2023-12-16T11:20:07.626Z,22.62
2023-12-16T11:22:52.180Z,22.53
2023-12-16T11:25:20.813Z,22.47
2023-12-16T11:27:51.759Z,22.46
2023-12-16T11:30:21.181Z,22.48
2023-12-16T11:32:55.663Z,22.50
2023-12-16T11:35:52.913Z,22.51
2023-12-16T11:38:47.530Z,22.54
2023-12-16T11:41:36.406Z,22.46
2023-12-16T11:44:04.069Z,22.36
2023-12-16T11:46:41.710Z,22.35
2023-12-16T11:49:15.339Z,22.34
2023-12-16T11:51:43.131Z,22.24
2023-12-16T11:54:12.660Z,22.19
2023-12-16T11:56:40.230Z,22.16
2023-12-16T11:59:09.468Z,22.15
2023-12-16T12:01:37.233Z,22.22
2023-12-16T12:04:05.500Z,22.17
2023-12-16T12:06:33.642Z,22.10
2023-12-16T12:09:01.555Z,22.07
2023-12-16T12:11:29.295Z,22.09
2023-12-16T12:13:57.146Z,22.07
2023-12-16T12:16:29.542Z,22.03
2023-12-16T12:18:58.113Z,22.05
2023-12-16T12:21:25.814Z,22.14
2023-12-16T12:23:53.526Z,22.20
2023-12-16T12:26:21.907Z,22.21
2023-12-16T12:28:57.547Z,22.19
2023-12-16T12:31:25.175Z,22.15
2023-12-16T12:33:53.169Z,22.14
2023-12-16T12:36:20.789Z,22.13
2023-12-16T12:38:54.879Z,22.12
2023-12-16T12:41:22.350Z,22.14
2023-12-16T12:43:49.858Z,22.10
2023-12-16T12:46:20.557Z,22.12
2023-12-16T12:48:55.830Z,22.10
2023-12-16T12:51:24.401Z,22.16
2023-12-16T12:53:59.994Z,22.18
2023-12-16T12:56:30.550Z,22.12
2023-12-16T12:58:59.245Z,22.04
2023-12-16T13:01:27.056Z,21.98
2023-12-16T13:03:55.205Z,21.88
2023-12-16T13:06:22.679Z,21.88
2023-12-16T13:08:51.711Z,21.92
2023-12-16T13:11:19.197Z,21.80
2023-12-16T13:13:46.540Z,21.74
2023-12-16T13:16:14.942Z,21.75
2023-12-16T13:18:43.585Z,21.78
2023-12-16T13:21:11.260Z,21.77
2023-12-16T13:23:38.808Z,21.76
2023-12-16T13:26:11.621Z,21.78
2023-12-16T13:28:42.548Z,21.77
2023-12-16T13:31:09.968Z,21.76
2023-12-16T13:33:37.569Z,21.72
2023-12-16T13:36:32.454Z,21.69
2023-12-16T13:38:53.394Z,21.75
2023-12-16T13:41:20.778Z,21.80
2023-12-16T13:43:50.112Z,21.79
2023-12-16T13:46:17.564Z,21.78
2023-12-16T13:48:45.526Z,21.79
2023-12-16T13:51:13.496Z,21.74
2023-12-16T13:53:41.058Z,21.68
2023-12-16T13:56:08.629Z,21.64
2023-12-16T13:58:35.920Z,21.58
2023-12-16T14:01:03.678Z,21.55
2023-12-16T14:03:31.229Z,21.50
2023-12-16T14:05:59.313Z,21.55
2023-12-16T14:08:26.939Z,21.52
2023-12-16T14:10:54.359Z,21.40
2023-12-16T14:13:23.357Z,21.44
2023-12-16T14:15:53.550Z,21.53
2023-12-16T14:18:21.075Z,21.45
2023-12-16T14:20:48.614Z,21.47
2023-12-16T14:23:16.012Z,21.54
2023-12-16T14:25:43.464Z,21.56
2023-12-16T14:28:10.893Z,21.56
2023-12-16T14:30:38.332Z,21.57
2023-12-16T14:33:06.741Z,21.54
2023-12-16T14:35:36.966Z,21.57
2023-12-16T14:38:05.509Z,21.60
2023-12-16T14:40:33.357Z,21.60
2023-12-16T14:43:00.553Z,21.55
2023-12-16T14:45:28.009Z,21.52
2023-12-16T14:47:55.654Z,21.42
2023-12-16T14:50:23.335Z,21.39
2023-12-16T14:52:50.980Z,21.39
2023-12-16T14:55:19.169Z,21.34
2023-12-16T14:57:46.530Z,21.31
2023-12-16T15:00:15.128Z,21.34
2023-12-16T15:02:43.134Z,21.40
2023-12-16T15:05:11.214Z,21.36
2023-12-16T15:07:38.977Z,21.40
2023-12-16T15:10:08.086Z,21.56
2023-12-16T15:12:35.509Z,21.62
2023-12-16T15:15:04.135Z,21.62
2023-12-16T15:17:31.769Z,21.69
2023-12-16T15:19:59.543Z,21.74
2023-12-16T15:22:27.222Z,21.61
2023-12-16T15:24:55.327Z,21.65
2023-12-16T15:27:22.954Z,21.76
2023-12-16T15:29:50.720Z,21.75
2023-12-16T15:32:18.437Z,21.73
2023-12-16T15:34:46.053Z,21.76
2023-12-16T15:37:17.853Z,21.82
2023-12-16T15:39:46.712Z,21.76
2023-12-16T15:42:17.518Z,21.77
2023-12-16T15:44:45.529Z,21.78
2023-12-16T15:47:18.101Z,21.75
2023-12-16T15:49:46.254Z,21.78
2023-12-16T23:52:51.498Z,23.11
2023-12-16T23:55:19.110Z,23.10
2023-12-16T23:57:46.579Z,23.13
